createdAt,value
2023-04-12T00:01:28.942Z,3.50
2023-04-12T00:03:57.549Z,2.93
2023-04-12T00:06:32.467Z,2.90
2023-04-12T00:09:04.335Z,2.80
2023-04-12T00:11:33.135Z,2.93
2023-04-12T00:14:04.350Z,3.10
2023-04-12T00:16:32.975Z,3.00
2023-04-12T00:19:01.719Z,3.20
2023-04-12T00:21:30.237Z,2.97
2023-04-12T00:23:58.835Z,2.90
2023-04-12T00:26:29.363Z,3.20
2023-04-12T00:29:00.749Z,3.17
2023-04-12T00:31:29.695Z,3.17
2023-04-12T00:33:58.776Z,3.10
2023-04-12T00:36:27.321Z,3.03
2023-04-12T00:38:55.603Z,2.77
2023-04-12T00:41:24.978Z,3.10
2023-04-12T00:43:55.045Z,3.33
2023-04-12T00:46:23.585Z,3.20
2023-04-12T00:48:51.973Z,3.73
2023-04-12T00:51:22.326Z,2.90
2023-04-12T00:53:53.444Z,3.50
2023-04-12T00:56:23.657Z,2.83
2023-04-12T00:58:52.352Z,2.70
2023-04-12T01:01:22.609Z,2.77
2023-04-12T01:03:54.809Z,3.40
2023-04-12T01:06:41.873Z,3.03
2023-04-12T01:09:21.630Z,3.23
2023-04-12T01:12:10.205Z,3.07
2023-04-12T01:14:50.301Z,2.80
2023-04-12T01:17:27.395Z,3.50
2023-04-12T01:20:13.286Z,3.37
2023-04-12T01:23:16.297Z,2.70
2023-04-12T01:26:11.358Z,2.90
2023-04-12T01:28:44.773Z,2.97
2023-04-12T01:31:14.933Z,3.23
2023-04-12T01:33:45.928Z,3.43
2023-04-12T01:36:19.314Z,3.17
2023-04-12T01:38:49.823Z,2.73
2023-04-12T01:41:18.208Z,3.10
2023-04-12T01:43:49.501Z,2.50
2023-04-12T01:46:24.064Z,3.10
2023-04-12T01:48:54.808Z,2.63
2023-04-12T01:51:36.512Z,3.30
2023-04-12T01:54:11.843Z,3.07
2023-04-12T01:56:43.120Z,2.60
2023-04-12T01:59:15.599Z,2.90
2023-04-12T02:01:44.507Z,3.40
2023-04-12T02:04:13.593Z,2.90
2023-04-12T02:06:44.151Z,3.27
2023-04-12T02:09:18.335Z,3.13
2023-04-12T02:11:49.762Z,3.30
2023-04-12T02:14:19.450Z,3.03
2023-04-12T02:16:48.070Z,2.80
2023-04-12T02:19:16.541Z,2.80
2023-04-12T02:21:46.747Z,2.90
2023-04-12T02:24:17.874Z,3.00
2023-04-12T02:26:46.227Z,3.30
2023-04-12T02:29:14.504Z,3.37
2023-04-12T02:31:48.349Z,2.93
2023-04-12T02:34:18.055Z,3.30
2023-04-12T02:36:48.536Z,3.40
2023-04-12T02:39:22.350Z,3.60
2023-04-12T02:41:50.752Z,3.43
2023-04-12T02:44:19.100Z,3.47
2023-04-12T02:46:48.810Z,3.00
2023-04-12T02:49:17.124Z,3.63
2023-04-12T02:51:52.305Z,3.27
2023-04-12T02:54:21.165Z,3.03
2023-04-12T02:56:49.486Z,3.47
2023-04-12T02:59:17.750Z,3.67
2023-04-12T03:01:46.740Z,3.10
2023-04-12T03:04:17.143Z,3.07
2023-04-12T03:06:53.791Z,3.50
2023-04-12T03:09:22.213Z,3.33
2023-04-12T03:11:50.725Z,3.20
2023-04-12T03:14:19.034Z,3.60
2023-04-12T03:16:49.160Z,3.13
2023-04-12T03:19:18.934Z,2.90
2023-04-12T03:21:47.216Z,3.10
2023-04-12T03:24:15.596Z,3.40
2023-04-12T03:26:44.044Z,2.93
2023-04-12T03:29:12.351Z,3.10
2023-04-12T03:31:40.761Z,3.40
2023-04-12T03:34:09.111Z,3.10
2023-04-12T03:36:39.112Z,3.13
2023-04-12T03:39:07.454Z,3.37
2023-04-12T03:41:38.369Z,3.10
2023-04-12T03:44:07.687Z,4.00
2023-04-12T03:46:36.389Z,3.40
2023-04-12T03:49:13.745Z,3.03
2023-04-12T03:51:43.902Z,3.47
2023-04-12T03:54:13.819Z,3.20
2023-04-12T03:56:43.157Z,3.40
2023-04-12T03:59:15.847Z,3.13
2023-04-12T04:01:44.419Z,3.60
2023-04-12T04:04:12.877Z,3.43
2023-04-12T04:06:42.733Z,3.40
2023-04-12T04:09:19.890Z,3.50
2023-04-12T04:11:50.047Z,2.60
2023-04-12T04:14:18.311Z,3.13
2023-04-12T04:16:46.665Z,3.60
2023-04-12T04:19:17.651Z,2.93
2023-04-12T04:21:47.624Z,2.70
2023-04-12T04:24:18.856Z,3.47
2023-04-12T04:26:47.135Z,3.13
2023-04-12T04:29:15.416Z,3.20
2023-04-12T04:31:46.079Z,3.10
2023-04-12T04:34:14.390Z,3.30
2023-04-12T04:36:42.777Z,3.33
2023-04-12T04:39:18.279Z,3.00
2023-04-12T04:41:46.876Z,3.30
2023-04-12T04:44:15.261Z,3.60
2023-04-12T04:46:43.733Z,3.97
2023-04-12T04:49:12.053Z,3.80
2023-04-12T04:51:40.332Z,3.80
2023-04-12T04:54:08.599Z,3.67
2023-04-12T04:56:41.023Z,3.60
2023-04-12T04:59:09.319Z,3.77
2023-04-12T05:01:37.782Z,3.30
2023-04-12T05:04:06.398Z,2.97
2023-04-12T05:06:34.808Z,3.60
2023-04-12T05:09:08.691Z,3.00
2023-04-12T05:11:37.420Z,3.90
2023-04-12T05:14:07.060Z,3.33
2023-04-12T05:16:35.484Z,3.67
2023-04-12T05:19:03.830Z,3.73
2023-04-12T05:21:33.119Z,3.57
2023-04-12T05:24:01.552Z,3.30
2023-04-12T05:26:29.869Z,5.07
2023-04-12T05:29:01.571Z,4.77
2023-04-12T05:31:31.285Z,4.20
2023-04-12T05:33:59.619Z,3.93
2023-04-12T05:36:27.936Z,3.80
2023-04-12T05:38:59.352Z,3.77
2023-04-12T05:41:27.755Z,3.77
2023-04-12T05:43:56.110Z,3.20
2023-04-12T05:46:24.524Z,3.40
2023-04-12T05:48:57.322Z,3.97
2023-04-12T05:51:40.000Z,4.30
2023-04-12T05:54:10.713Z,3.40
2023-04-12T05:56:40.141Z,3.80
2023-04-12T05:59:09.154Z,3.53
2023-04-12T06:01:37.613Z,3.20
2023-04-12T06:04:08.095Z,3.53
2023-04-12T06:06:36.671Z,3.33
2023-04-12T06:09:05.293Z,3.20
2023-04-12T06:11:34.311Z,3.50
2023-04-12T06:14:03.087Z,3.13
2023-04-12T06:16:34.795Z,3.83
2023-04-12T06:19:06.323Z,3.10
2023-04-12T06:21:36.769Z,2.77
2023-04-12T06:24:05.568Z,3.50
2023-04-12T06:26:39.820Z,3.30
2023-04-12T06:29:08.663Z,3.90
2023-04-12T06:31:37.036Z,3.90
2023-04-12T06:34:05.785Z,3.40
2023-04-12T06:36:35.640Z,3.20
2023-04-12T06:39:04.169Z,3.27
2023-04-12T06:41:32.485Z,3.43
2023-04-12T06:44:00.826Z,3.70
2023-04-12T06:46:30.205Z,3.87
2023-04-12T06:49:01.454Z,3.20
2023-04-12T06:51:29.844Z,3.17
2023-04-12T06:53:59.482Z,3.50
2023-04-12T06:56:27.888Z,3.23
2023-04-12T06:59:00.190Z,3.53
2023-04-12T07:01:28.848Z,2.97
2023-04-12T07:03:57.363Z,3.47
2023-04-12T07:06:26.379Z,3.27
2023-04-12T07:08:55.380Z,3.87
2023-04-12T07:11:25.426Z,3.53
2023-04-12T07:13:53.756Z,3.10
2023-04-12T07:16:22.171Z,3.00
2023-04-12T07:18:50.480Z,3.70
2023-04-12T07:21:18.964Z,3.30
2023-04-12T07:23:51.116Z,3.10
2023-04-12T07:26:19.823Z,3.30
2023-04-12T07:28:49.515Z,3.27
2023-04-12T07:31:17.926Z,2.97
2023-04-12T07:33:46.548Z,3.20
2023-04-12T07:36:16.637Z,3.47
2023-04-12T07:38:45.045Z,3.30
2023-04-12T07:41:13.510Z,2.87
2023-04-12T07:43:41.830Z,2.97
2023-04-12T07:46:11.580Z,2.80
2023-04-12T07:48:39.988Z,2.70
2023-04-12T07:51:12.750Z,2.40
2023-04-12T07:53:42.103Z,3.17
2023-04-12T07:56:10.841Z,2.40
2023-04-12T07:58:39.516Z,2.93
2023-04-12T08:01:08.416Z,2.57
2023-04-12T08:03:38.175Z,2.57
2023-04-12T08:06:07.958Z,2.90
2023-04-12T08:08:36.862Z,2.17
2023-04-12T08:11:06.476Z,2.40
2023-04-12T08:13:36.179Z,2.10
2023-04-12T08:16:04.857Z,2.30
2023-04-12T08:18:37.781Z,6.30
2023-04-12T08:21:06.805Z,2.77
2023-04-12T08:23:35.180Z,2.60
2023-04-12T08:26:04.210Z,2.30
2023-04-12T08:28:32.997Z,2.37
2023-04-12T08:31:01.418Z,2.20
2023-04-12T08:33:29.780Z,2.17
2023-04-12T08:35:59.948Z,2.10
2023-04-12T08:38:44.178Z,2.40
2023-04-12T08:41:15.051Z,2.57
2023-04-12T08:43:47.497Z,2.80
2023-04-12T08:46:17.133Z,2.10
2023-04-12T08:48:48.237Z,2.13
2023-04-12T08:51:20.194Z,2.90
2023-04-12T08:53:48.800Z,2.23
2023-04-12T08:56:18.334Z,2.50
2023-04-12T08:58:52.570Z,2.20
2023-04-12T09:01:22.415Z,2.30
2023-04-12T09:03:51.084Z,2.20
2023-04-12T09:06:20.929Z,2.40
2023-04-12T09:08:57.421Z,2.10
2023-04-12T09:11:28.674Z,2.03
2023-04-12T09:13:58.637Z,2.00
2023-04-12T09:16:38.132Z,2.20
2023-04-12T09:19:06.853Z,1.90
2023-04-12T09:21:37.826Z,1.73
2023-04-12T09:24:14.023Z,2.03
2023-04-12T09:26:43.043Z,1.77
2023-04-12T09:29:26.230Z,1.70
2023-04-12T09:32:02.788Z,2.97
2023-04-12T09:34:31.407Z,1.63
2023-04-12T09:37:01.106Z,1.70
2023-04-12T09:39:34.115Z,1.70
2023-04-12T09:42:25.038Z,1.50
2023-04-12T09:44:59.565Z,1.67
2023-04-12T09:47:42.179Z,1.40
2023-04-12T09:50:21.096Z,1.90
2023-04-12T09:52:53.310Z,1.97
2023-04-12T09:55:23.667Z,1.70
2023-04-12T09:57:53.958Z,1.80
2023-04-12T10:00:26.817Z,1.77
2023-04-12T10:02:57.545Z,1.40
2023-04-12T10:05:27.954Z,1.80
2023-04-12T10:07:58.346Z,2.00
2023-04-12T10:10:27.257Z,1.60
2023-04-12T10:12:55.890Z,1.93
2023-04-12T10:15:25.585Z,1.83
2023-04-12T10:17:58.042Z,2.17
2023-04-12T10:20:29.286Z,2.40
2023-04-12T10:23:00.673Z,2.00
2023-04-12T10:25:31.772Z,2.00
2023-04-12T10:28:16.014Z,2.00
2023-04-12T10:30:44.369Z,2.30
2023-04-12T10:33:17.926Z,2.33
2023-04-12T10:36:00.410Z,1.83
2023-04-12T10:38:35.342Z,2.40
2023-04-12T10:41:16.797Z,2.37
2023-04-12T10:43:46.398Z,2.10
2023-04-12T10:46:50.421Z,2.00
2023-04-12T10:49:19.935Z,2.27
2023-04-12T10:52:14.948Z,2.03
2023-04-12T10:54:44.841Z,2.93
2023-04-12T10:57:49.531Z,2.47
2023-04-12T11:00:18.622Z,2.43
2023-04-12T11:03:09.987Z,2.17
2023-04-12T11:06:12.576Z,2.57
2023-04-12T11:08:50.372Z,2.37
2023-04-12T11:11:23.289Z,2.20
2023-04-12T11:13:59.227Z,2.40
2023-04-12T11:16:27.675Z,2.60
2023-04-12T11:18:56.364Z,2.37
2023-04-12T11:21:26.677Z,2.80
2023-04-12T11:23:56.485Z,2.00
2023-04-12T11:26:26.258Z,2.30
2023-04-12T11:28:56.032Z,2.60
2023-04-12T11:31:24.871Z,2.47
2023-04-12T11:33:53.281Z,2.50
2023-04-12T11:36:24.674Z,2.70
2023-04-12T11:38:53.565Z,3.00
2023-04-12T11:41:21.892Z,3.10
2023-04-12T11:43:51.704Z,3.20
2023-04-12T11:46:20.818Z,3.10
2023-04-12T11:48:49.307Z,3.53
2023-04-12T11:51:22.343Z,2.97
2023-04-12T11:53:54.942Z,3.53
2023-04-12T11:56:23.935Z,3.03
2023-04-12T11:58:53.684Z,2.90
2023-04-12T12:01:23.895Z,3.13
2023-04-12T12:03:52.869Z,2.93
2023-04-12T12:06:21.801Z,2.77
2023-04-12T12:08:51.536Z,2.20
2023-04-12T12:11:21.535Z,2.60
2023-04-12T12:13:51.650Z,2.50
2023-04-12T12:16:27.923Z,2.20
2023-04-12T12:18:57.807Z,2.57
2023-04-12T12:21:27.809Z,2.13
2023-04-12T12:23:58.501Z,2.90
2023-04-12T12:26:29.162Z,2.10
2023-04-12T12:29:00.474Z,2.30
2023-04-12T12:31:30.831Z,2.50
2023-04-12T12:34:03.120Z,2.40
2023-04-12T12:36:33.538Z,2.10
2023-04-12T12:39:09.375Z,3.03
2023-04-12T12:41:38.233Z,2.60
2023-04-12T12:44:08.189Z,2.60
2023-04-12T12:49:09.377Z,2.47
2023-04-12T12:51:37.719Z,2.40
2023-04-12T12:54:07.732Z,2.50
2023-04-12T12:56:36.708Z,2.67
2023-04-12T12:59:05.535Z,2.23
2023-04-12T13:01:33.983Z,2.43
2023-04-12T13:04:03.791Z,2.60
2023-04-12T13:06:32.365Z,2.70
2023-04-12T13:09:01.029Z,2.10
2023-04-12T13:11:29.460Z,2.30
2023-04-12T13:13:57.683Z,2.47
2023-04-12T13:16:27.090Z,2.20
2023-04-12T13:18:55.863Z,2.70
2023-04-12T13:21:27.257Z,2.33
2023-04-12T13:23:55.523Z,2.40
2023-04-12T13:26:25.676Z,2.63
2023-04-12T13:28:54.075Z,2.53
2023-04-12T13:31:22.474Z,2.13
2023-04-12T13:33:50.815Z,2.30
2023-04-12T13:36:19.165Z,2.43
2023-04-12T13:38:48.862Z,2.10
2023-04-12T13:41:17.172Z,1.80
2023-04-12T13:43:45.413Z,2.30
2023-04-12T13:46:13.812Z,2.13
2023-04-12T13:48:42.739Z,2.03
2023-04-12T13:51:11.330Z,2.37
2023-04-12T13:53:39.566Z,2.30
2023-04-12T13:56:10.740Z,3.70
2023-04-12T13:58:39.949Z,20.77
2023-04-12T14:01:08.593Z,5.33
2023-04-12T14:03:37.516Z,9.70
2023-04-12T14:06:06.328Z,3.93
2023-04-12T14:08:35.101Z,21.20
2023-04-12T14:11:04.474Z,50.30
2023-04-12T14:13:37.546Z,26.43
2023-04-12T14:16:07.657Z,13.43
2023-04-12T14:18:36.137Z,8.67
2023-04-12T14:21:04.821Z,23.87
2023-04-12T14:23:33.451Z,39.07
2023-04-12T14:26:01.801Z,10.37
2023-04-12T14:28:31.084Z,7.83
2023-04-12T14:31:03.570Z,14.50
2023-04-12T14:33:33.267Z,3.40
2023-04-12T14:36:05.097Z,2.93
2023-04-12T14:38:33.598Z,3.60
2023-04-12T14:41:02.187Z,2.00
2023-04-12T14:43:30.468Z,4.83
2023-04-12T14:46:00.223Z,8.40
2023-04-12T14:48:28.578Z,4.50
2023-04-12T14:50:56.843Z,5.63
2023-04-12T14:53:28.143Z,6.40
2023-04-12T14:55:56.427Z,8.87
2023-04-12T14:58:25.506Z,3.23
2023-04-12T15:00:53.941Z,13.40
2023-04-12T15:03:23.739Z,7.43
2023-04-12T15:05:52.078Z,6.17
2023-04-12T15:08:20.468Z,4.53
2023-04-12T15:10:48.777Z,2.37
2023-04-12T15:13:17.335Z,9.70
2023-04-12T15:15:47.473Z,2.73
2023-04-12T15:18:16.536Z,2.03
2023-04-12T15:20:46.354Z,2.97
2023-04-12T15:23:15.777Z,1.87
2023-04-12T15:25:44.328Z,3.33
2023-04-12T15:28:12.644Z,2.07
2023-04-12T15:30:41.008Z,2.00
2023-04-12T15:33:09.359Z,2.10
2023-04-12T15:35:37.743Z,1.73
2023-04-12T15:38:08.055Z,1.50
2023-04-12T15:40:36.616Z,2.00
2023-04-12T15:43:05.006Z,1.73
2023-04-12T15:48:01.808Z,2.00
2023-04-12T15:50:30.168Z,2.37
2023-04-12T15:52:59.669Z,1.83
2023-04-12T15:55:29.402Z,1.27
2023-04-12T15:57:58.076Z,1.97
2023-04-12T16:00:27.622Z,2.27
2023-04-12T16:02:57.328Z,1.67
2023-04-12T16:05:26.732Z,1.70
2023-04-12T16:07:56.689Z,1.70
2023-04-12T16:10:25.473Z,1.70
2023-04-12T16:12:57.388Z,1.37
2023-04-12T16:15:25.882Z,3.33
2023-04-12T16:17:55.753Z,2.50
2023-04-12T16:20:24.982Z,2.00
2023-04-12T16:22:55.320Z,1.53
2023-04-12T16:25:25.297Z,1.60
2023-04-12T16:27:55.738Z,1.73
2023-04-12T16:30:25.609Z,1.40
2023-04-12T16:32:54.006Z,1.60
2023-04-12T16:35:22.421Z,1.60
2023-04-12T16:37:50.881Z,2.10
2023-04-12T16:40:19.444Z,8.90
2023-04-12T16:42:47.784Z,3.73
2023-04-12T16:45:17.853Z,2.60
2023-04-12T16:47:48.086Z,2.77
2023-04-12T16:50:16.758Z,2.00
2023-04-12T16:52:45.141Z,1.60
2023-04-12T16:55:14.267Z,1.83
2023-04-12T16:57:44.404Z,2.23
2023-04-12T17:00:21.189Z,2.10
2023-04-12T17:02:51.663Z,3.33
2023-04-12T17:05:21.372Z,2.33
2023-04-12T17:07:53.981Z,1.73
2023-04-12T17:10:24.731Z,1.70
2023-04-12T17:12:55.133Z,1.10
2023-04-12T17:15:28.507Z,1.10
2023-04-12T17:18:03.084Z,1.27
2023-04-12T17:20:32.351Z,1.40
2023-04-12T17:23:01.048Z,0.90
2023-04-12T17:25:31.595Z,1.20
2023-04-12T17:28:00.549Z,1.00
2023-04-12T17:30:30.900Z,1.10
2023-04-12T17:33:01.406Z,1.10
2023-04-12T17:35:30.533Z,1.10
2023-04-12T17:37:58.965Z,1.17
2023-04-12T17:40:28.026Z,1.17
2023-04-12T17:42:56.442Z,1.10
2023-04-12T17:45:25.245Z,1.07
2023-04-12T17:47:55.695Z,1.43
2023-04-12T17:50:26.052Z,1.90
2023-04-12T17:52:55.406Z,1.63
2023-04-12T17:55:25.846Z,2.03
2023-04-12T17:57:57.347Z,2.03
2023-04-12T18:00:26.592Z,1.57
2023-04-12T18:02:56.589Z,1.90
2023-04-12T18:05:25.376Z,1.50
2023-04-12T18:07:59.628Z,1.97
2023-04-12T18:10:28.050Z,1.40
2023-04-12T18:12:56.461Z,1.80
2023-04-12T18:15:24.878Z,2.17
2023-04-12T18:17:53.417Z,2.17
2023-04-12T18:20:24.031Z,2.20
2023-04-12T18:23:01.546Z,2.27
2023-04-12T18:25:29.922Z,2.27
2023-04-12T18:27:59.121Z,2.00
2023-04-12T18:30:27.584Z,2.07
2023-04-12T18:32:56.015Z,2.57
2023-04-12T18:35:25.901Z,2.67
2023-04-12T18:37:54.363Z,3.00
2023-04-12T18:40:23.667Z,2.00
2023-04-12T18:42:52.072Z,2.30
2023-04-12T18:45:22.777Z,2.13
2023-04-12T18:47:53.875Z,2.10
2023-04-12T18:50:23.446Z,2.80
2023-04-12T18:52:58.310Z,2.23
2023-04-12T18:55:26.682Z,2.43
2023-04-12T18:57:55.111Z,2.30
2023-04-12T19:00:23.590Z,2.23
2023-04-12T19:02:51.918Z,2.27
2023-04-12T19:05:21.663Z,1.97
2023-04-12T19:07:50.104Z,2.00
2023-04-12T19:10:19.815Z,1.90
2023-04-12T19:12:48.107Z,1.60
2023-04-12T19:15:16.401Z,1.70
2023-04-12T19:17:44.757Z,1.80
2023-04-12T19:20:13.466Z,1.90
2023-04-12T19:22:41.765Z,1.67
2023-04-12T19:25:11.035Z,1.87
2023-04-12T19:27:43.385Z,2.00
2023-04-12T19:30:13.071Z,1.70
2023-04-12T19:32:42.821Z,2.07
2023-04-12T19:35:11.482Z,1.90
2023-04-12T19:37:42.776Z,2.10
2023-04-12T19:40:13.754Z,1.60
2023-04-12T19:42:44.125Z,1.57
2023-04-12T19:45:12.632Z,1.60
2023-04-12T19:47:44.834Z,1.90
2023-04-12T19:50:15.020Z,1.40
2023-04-12T19:52:43.854Z,1.50
2023-04-12T19:55:12.701Z,1.80
2023-04-12T19:57:43.129Z,2.17
2023-04-12T20:00:15.477Z,1.50
2023-04-12T20:02:43.799Z,1.50
2023-04-12T20:05:12.550Z,1.43
2023-04-12T20:07:40.807Z,1.47
2023-04-12T20:10:11.011Z,1.57
2023-04-12T20:12:40.253Z,1.30
2023-04-12T20:15:12.670Z,1.10
2023-04-12T20:17:42.454Z,1.13
2023-04-12T20:20:14.141Z,1.73
2023-04-12T20:22:44.006Z,1.60
2023-04-12T20:25:13.074Z,2.03
2023-04-12T20:27:41.508Z,1.47
2023-04-12T20:30:17.657Z,1.60
2023-04-12T20:32:46.142Z,2.00
2023-04-12T20:35:15.316Z,1.60
2023-04-12T20:37:43.638Z,1.80
2023-04-12T20:40:13.438Z,1.40
2023-04-12T20:42:42.480Z,1.63
2023-04-12T20:45:14.006Z,1.77
2023-04-12T20:47:42.333Z,1.90
2023-04-12T20:50:11.390Z,1.70
2023-04-12T20:52:40.388Z,1.63
2023-04-12T20:55:10.656Z,1.60
2023-04-12T20:57:41.836Z,1.10
2023-04-12T21:00:18.008Z,0.80
2023-04-12T21:02:48.803Z,0.77
2023-04-12T21:05:17.607Z,0.73
2023-04-12T21:07:46.897Z,0.93
2023-04-12T21:10:16.426Z,0.80
2023-04-12T21:12:45.086Z,1.00
2023-04-12T21:15:21.759Z,0.47
2023-04-12T21:17:54.686Z,0.63
2023-04-12T21:20:25.510Z,0.60
2023-04-12T21:22:53.828Z,0.50
2023-04-12T21:25:22.870Z,0.80
2023-04-12T21:27:51.382Z,0.60
2023-04-12T21:30:24.127Z,0.80
2023-04-12T21:32:53.674Z,0.60
2023-04-12T21:35:22.811Z,0.80
2023-04-12T21:37:52.347Z,0.70
2023-04-12T21:40:20.797Z,0.67
2023-04-12T21:42:49.067Z,0.60
2023-04-12T21:45:17.591Z,0.70
2023-04-12T21:47:52.771Z,0.70
2023-04-12T21:50:23.568Z,0.60
2023-04-12T21:52:51.868Z,0.70
2023-04-12T21:55:20.175Z,0.50
2023-04-12T21:57:51.289Z,0.70
2023-04-12T22:00:19.847Z,0.63
2023-04-12T22:02:49.713Z,0.70
2023-04-12T22:05:18.212Z,1.07
2023-04-12T22:07:47.664Z,0.70
2023-04-12T22:10:16.234Z,0.70
2023-04-12T22:12:50.532Z,0.77
2023-04-12T22:15:19.602Z,0.83
2023-04-12T22:17:49.940Z,0.67
2023-04-12T22:20:18.756Z,0.80
2023-04-12T22:22:47.063Z,0.63
2023-04-12T22:25:15.859Z,0.70
2023-04-12T22:27:46.715Z,0.70
2023-04-12T22:30:15.839Z,0.77
2023-04-12T22:32:47.272Z,0.60
2023-04-12T22:35:17.637Z,0.70
2023-04-12T22:37:46.105Z,0.50
2023-04-12T22:40:14.826Z,0.60
2023-04-12T22:42:46.563Z,0.60
2023-04-12T22:45:21.741Z,0.50
2023-04-12T22:47:57.601Z,0.60
2023-04-12T22:50:27.296Z,0.83
2023-04-12T22:53:02.960Z,0.80
2023-04-12T22:55:31.475Z,0.60
2023-04-12T22:58:04.936Z,0.73
2023-04-12T23:00:35.189Z,0.80
2023-04-12T23:03:04.377Z,1.10
2023-04-12T23:05:34.276Z,0.90
2023-04-12T23:08:02.555Z,0.87
2023-04-12T23:10:33.836Z,0.90
2023-04-12T23:13:03.317Z,1.40
2023-04-12T23:15:31.687Z,1.10
2023-04-12T23:18:08.954Z,0.90
2023-04-12T23:20:40.250Z,0.70
2023-04-12T23:23:08.693Z,0.87
2023-04-12T23:25:41.191Z,0.70
2023-04-12T23:28:15.652Z,0.70
2023-04-12T23:30:47.849Z,0.57
2023-04-12T23:33:18.166Z,0.70
2023-04-12T23:35:52.436Z,0.43
2023-04-12T23:38:31.914Z,0.80
2023-04-12T23:41:02.242Z,0.70
2023-04-12T23:43:32.394Z,0.50
2023-04-12T23:46:01.427Z,0.60
2023-04-12T23:48:30.422Z,0.60
2023-04-12T23:51:01.624Z,0.80
2023-04-12T23:53:29.996Z,0.47
2023-04-12T23:55:58.522Z,0.60
2023-04-12T23:58:27.147Z,0.50
